sensor_id;sensor_type;location;lat;lon;timestamp;pressure;altitude;pressure_sealevel;temperature;humidity
9462;BME280;4769;42.660;23.262;2023-04-22T00:00:27;93657.16;;;10.84;87.04
9462;BME280;4769;42.660;23.262;2023-04-22T00:02:55;93659.88;;;10.94;86.62
9462;BME280;4769;42.660;23.262;2023-04-22T00:05:23;93647.44;;;10.89;86.16
9462;BME280;4769;42.660;23.262;2023-04-22T00:07:49;93659.28;;;10.87;85.00
9462;BME280;4769;42.660;23.262;2023-04-22T00:10:15;93650.03;;;10.84;83.25
9462;BME280;4769;42.660;23.262;2023-04-22T00:12:40;93647.91;;;10.81;82.62
9462;BME280;4769;42.660;23.262;2023-04-22T00:15:08;93662.03;;;10.97;82.99
9462;BME280;4769;42.660;23.262;2023-04-22T00:17:33;93665.69;;;10.96;83.71
9462;BME280;4769;42.660;23.262;2023-04-22T00:20:02;93664.91;;;10.95;84.08
9462;BME280;4769;42.660;23.262;2023-04-22T00:22:28;93661.47;;;10.95;83.70
9462;BME280;4769;42.660;23.262;2023-04-22T00:24:54;93662.94;;;10.81;84.67
9462;BME280;4769;42.660;23.262;2023-04-22T00:27:20;93664.44;;;10.72;85.96
9462;BME280;4769;42.660;23.262;2023-04-22T00:29:45;93667.25;;;10.60;86.34
9462;BME280;4769;42.660;23.262;2023-04-22T00:32:11;93663.28;;;10.58;85.83
9462;BME280;4769;42.660;23.262;2023-04-22T00:34:37;93671.81;;;10.38;86.85
9462;BME280;4769;42.660;23.262;2023-04-22T00:37:05;93662.00;;;10.34;86.84
9462;BME280;4769;42.660;23.262;2023-04-22T00:39:31;93662.84;;;10.39;86.79
9462;BME280;4769;42.660;23.262;2023-04-22T00:41:56;93665.34;;;10.51;86.56
9462;BME280;4769;42.660;23.262;2023-04-22T00:44:23;93670.69;;;10.61;86.09
9462;BME280;4769;42.660;23.262;2023-04-22T00:46:50;93659.53;;;10.54;86.00
9462;BME280;4769;42.660;23.262;2023-04-22T00:49:16;93664.03;;;10.53;85.79
9462;BME280;4769;42.660;23.262;2023-04-22T00:51:42;93675.34;;;10.54;85.13
9462;BME280;4769;42.660;23.262;2023-04-22T00:54:10;93679.84;;;10.53;85.81
9462;BME280;4769;42.660;23.262;2023-04-22T00:56:37;93679.75;;;10.43;86.89
9462;BME280;4769;42.660;23.262;2023-04-22T00:59:03;93685.97;;;10.32;88.10
9462;BME280;4769;42.660;23.262;2023-04-22T01:01:29;93685.91;;;10.27;88.51
9462;BME280;4769;42.660;23.262;2023-04-22T01:03:55;93681.66;;;10.21;88.95
9462;BME280;4769;42.660;23.262;2023-04-22T01:06:23;93682.94;;;10.19;89.20
9462;BME280;4769;42.660;23.262;2023-04-22T01:08:49;93680.53;;;10.17;88.81
9462;BME280;4769;42.660;23.262;2023-04-22T01:11:17;93680.06;;;10.20;88.84
9462;BME280;4769;42.660;23.262;2023-04-22T01:13:43;93678.91;;;10.11;88.83
9462;BME280;4769;42.660;23.262;2023-04-22T01:16:09;93683.22;;;10.01;88.69
9462;BME280;4769;42.660;23.262;2023-04-22T01:18:35;93677.84;;;9.91;89.42
9462;BME280;4769;42.660;23.262;2023-04-22T01:21:01;93692.44;;;9.98;88.96
9462;BME280;4769;42.660;23.262;2023-04-22T01:23:29;93685.88;;;10.01;88.75
9462;BME280;4769;42.660;23.262;2023-04-22T01:25:56;93685.06;;;10.00;88.83
9462;BME280;4769;42.660;23.262;2023-04-22T01:28:22;93687.53;;;10.07;89.19
9462;BME280;4769;42.660;23.262;2023-04-22T01:30:48;93678.84;;;10.06;89.28
9462;BME280;4769;42.660;23.262;2023-04-22T01:33:15;93682.84;;;10.09;89.41
9462;BME280;4769;42.660;23.262;2023-04-22T01:35:41;93682.31;;;10.12;89.66
9462;BME280;4769;42.660;23.262;2023-04-22T01:38:08;93685.47;;;10.09;89.77
9462;BME280;4769;42.660;23.262;2023-04-22T01:40:38;93682.66;;;10.15;89.42
9462;BME280;4769;42.660;23.262;2023-04-22T01:43:04;93682.38;;;10.17;89.48
9462;BME280;4769;42.660;23.262;2023-04-22T01:45:30;93681.88;;;10.20;89.22
9462;BME280;4769;42.660;23.262;2023-04-22T01:47:56;93677.16;;;10.22;88.85
9462;BME280;4769;42.660;23.262;2023-04-22T01:50:22;93674.03;;;10.25;88.59
9462;BME280;4769;42.660;23.262;2023-04-22T01:52:48;93676.19;;;10.28;88.31
9462;BME280;4769;42.660;23.262;2023-04-22T01:55:14;93681.94;;;10.25;87.75
9462;BME280;4769;42.660;23.262;2023-04-22T01:57:43;93679.88;;;10.27;88.03
9462;BME280;4769;42.660;23.262;2023-04-22T02:00:10;93677.16;;;10.22;88.38
9462;BME280;4769;42.660;23.262;2023-04-22T02:02:35;93670.88;;;10.23;88.92
9462;BME280;4769;42.660;23.262;2023-04-22T02:05:01;93661.91;;;10.24;88.97
9462;BME280;4769;42.660;23.262;2023-04-22T02:07:27;93670.72;;;10.34;88.53
9462;BME280;4769;42.660;23.262;2023-04-22T02:09:53;93669.09;;;10.33;88.62
9462;BME280;4769;42.660;23.262;2023-04-22T02:12:18;93667.56;;;10.37;88.44
9462;BME280;4769;42.660;23.262;2023-04-22T02:14:47;93665.53;;;10.44;88.52
9462;BME280;4769;42.660;23.262;2023-04-22T02:17:12;93668.69;;;10.46;88.34
9462;BME280;4769;42.660;23.262;2023-04-22T02:19:38;93672.09;;;10.42;88.36
9462;BME280;4769;42.660;23.262;2023-04-22T02:22:04;93669.94;;;10.39;88.47
9462;BME280;4769;42.660;23.262;2023-04-22T02:24:29;93672.63;;;10.44;88.64
9462;BME280;4769;42.660;23.262;2023-04-22T02:26:55;93673.25;;;10.51;88.83
9462;BME280;4769;42.660;23.262;2023-04-22T02:29:21;93679.53;;;10.50;89.08
9462;BME280;4769;42.660;23.262;2023-04-22T02:31:49;93681.63;;;10.48;89.46
9462;BME280;4769;42.660;23.262;2023-04-22T02:34:15;93675.50;;;10.42;89.79
9462;BME280;4769;42.660;23.262;2023-04-22T02:36:40;93672.53;;;10.34;89.81
9462;BME280;4769;42.660;23.262;2023-04-22T02:39:06;93683.53;;;10.26;89.45
9462;BME280;4769;42.660;23.262;2023-04-22T02:41:32;93680.97;;;10.09;89.94
9462;BME280;4769;42.660;23.262;2023-04-22T02:43:57;93681.22;;;10.08;90.29
9462;BME280;4769;42.660;23.262;2023-04-22T02:46:23;93681.72;;;10.05;90.55
9462;BME280;4769;42.660;23.262;2023-04-22T02:48:51;93679.69;;;10.12;90.72
9462;BME280;4769;42.660;23.262;2023-04-22T02:51:17;93681.72;;;10.05;90.75
9462;BME280;4769;42.660;23.262;2023-04-22T02:53:43;93682.03;;;10.08;91.15
9462;BME280;4769;42.660;23.262;2023-04-22T02:56:08;93684.81;;;10.02;91.25
9462;BME280;4769;42.660;23.262;2023-04-22T02:58:34;93683.19;;;9.96;91.34
9462;BME280;4769;42.660;23.262;2023-04-22T03:01:00;93691.88;;;9.75;92.58
9462;BME280;4769;42.660;23.262;2023-04-22T03:03:25;93693.84;;;9.63;94.18
9462;BME280;4769;42.660;23.262;2023-04-22T03:05:54;93697.06;;;9.70;93.97
9462;BME280;4769;42.660;23.262;2023-04-22T03:08:19;93697.41;;;9.73;93.99
9462;BME280;4769;42.660;23.262;2023-04-22T03:10:45;93689.81;;;9.77;93.68
9462;BME280;4769;42.660;23.262;2023-04-22T03:13:11;93694.25;;;9.76;93.81
9462;BME280;4769;42.660;23.262;2023-04-22T03:15:38;93692.97;;;9.79;93.40
9462;BME280;4769;42.660;23.262;2023-04-22T03:18:04;93693.53;;;9.81;93.13
9462;BME280;4769;42.660;23.262;2023-04-22T03:20:30;93697.19;;;9.80;93.25
9462;BME280;4769;42.660;23.262;2023-04-22T03:22:58;93694.84;;;9.78;93.38
9462;BME280;4769;42.660;23.262;2023-04-22T03:25:24;93689.41;;;9.68;93.71
9462;BME280;4769;42.660;23.262;2023-04-22T03:27:50;93698.75;;;9.76;93.93
9462;BME280;4769;42.660;23.262;2023-04-22T03:30:15;93693.03;;;9.84;93.52
9462;BME280;4769;42.660;23.262;2023-04-22T03:32:41;93695.25;;;9.92;93.36
9462;BME280;4769;42.660;23.262;2023-04-22T03:35:07;93696.41;;;10.01;92.75
9462;BME280;4769;42.660;23.262;2023-04-22T03:37:33;93713.69;;;9.92;92.92
9462;BME280;4769;42.660;23.262;2023-04-22T03:40:01;93709.75;;;9.94;93.21
9462;BME280;4769;42.660;23.262;2023-04-22T03:42:27;93712.69;;;9.98;92.71
9462;BME280;4769;42.660;23.262;2023-04-22T03:44:53;93699.28;;;9.99;92.48
9462;BME280;4769;42.660;23.262;2023-04-22T03:47:18;93712.28;;;10.06;92.43
9462;BME280;4769;42.660;23.262;2023-04-22T03:49:44;93711.81;;;10.09;92.40
9462;BME280;4769;42.660;23.262;2023-04-22T03:52:10;93710.47;;;10.06;92.71
9462;BME280;4769;42.660;23.262;2023-04-22T03:54:35;93713.16;;;10.11;92.58
9462;BME280;4769;42.660;23.262;2023-04-22T03:57:04;93717.00;;;10.04;92.71
9462;BME280;4769;42.660;23.262;2023-04-22T03:59:29;93718.72;;;10.15;92.77
9462;BME280;4769;42.660;23.262;2023-04-22T04:01:55;93719.31;;;10.22;92.36
9462;BME280;4769;42.660;23.262;2023-04-22T04:04:20;93719.13;;;10.28;91.90
9462;BME280;4769;42.660;23.262;2023-04-22T04:06:46;93711.03;;;10.35;91.74
9462;BME280;4769;42.660;23.262;2023-04-22T04:09:12;93708.72;;;10.38;91.32
9462;BME280;4769;42.660;23.262;2023-04-22T04:11:37;93726.97;;;10.50;90.70
9462;BME280;4769;42.660;23.262;2023-04-22T04:14:06;93725.63;;;10.47;90.58
9462;BME280;4769;42.660;23.262;2023-04-22T04:16:32;93723.31;;;10.51;90.65
9462;BME280;4769;42.660;23.262;2023-04-22T04:18:57;93728.34;;;10.52;90.31
9462;BME280;4769;42.660;23.262;2023-04-22T04:21:23;93714.59;;;10.50;90.62
9462;BME280;4769;42.660;23.262;2023-04-22T04:23:49;93725.19;;;10.55;90.62
9462;BME280;4769;42.660;23.262;2023-04-22T04:26:14;93728.63;;;10.56;90.14
9462;BME280;4769;42.660;23.262;2023-04-22T04:28:40;93722.13;;;10.63;89.88
9462;BME280;4769;42.660;23.262;2023-04-22T04:31:11;93722.72;;;10.44;89.47
9462;BME280;4769;42.660;23.262;2023-04-22T04:33:37;93727.50;;;10.47;90.19
9462;BME280;4769;42.660;23.262;2023-04-22T04:36:03;93731.22;;;10.51;90.05
9462;BME280;4769;42.660;23.262;2023-04-22T04:38:29;93738.47;;;10.65;90.65
9462;BME280;4769;42.660;23.262;2023-04-22T04:40:55;93734.81;;;10.66;89.86
9462;BME280;4769;42.660;23.262;2023-04-22T04:43:22;93740.19;;;10.76;89.78
9462;BME280;4769;42.660;23.262;2023-04-22T04:45:48;93751.16;;;10.68;89.02
9462;BME280;4769;42.660;23.262;2023-04-22T04:48:16;93751.81;;;10.80;88.58
9462;BME280;4769;42.660;23.262;2023-04-22T04:50:42;93746.88;;;10.89;88.17
9462;BME280;4769;42.660;23.262;2023-04-22T04:53:08;93761.31;;;11.13;87.48
9462;BME280;4769;42.660;23.262;2023-04-22T04:55:34;93759.84;;;11.27;87.34
9462;BME280;4769;42.660;23.262;2023-04-22T04:58:00;93766.31;;;11.46;86.09
9462;BME280;4769;42.660;23.262;2023-04-22T05:00:26;93757.84;;;11.39;84.88
9462;BME280;4769;42.660;23.262;2023-04-22T05:02:52;93763.72;;;11.51;84.38
9462;BME280;4769;42.660;23.262;2023-04-22T05:05:21;93766.91;;;11.53;84.01
9462;BME280;4769;42.660;23.262;2023-04-22T05:07:47;93774.44;;;11.71;83.60
9462;BME280;4769;42.660;23.262;2023-04-22T05:10:13;93765.78;;;11.80;83.25
9462;BME280;4769;42.660;23.262;2023-04-22T05:12:39;93770.56;;;11.83;83.79
9462;BME280;4769;42.660;23.262;2023-04-22T05:15:06;93773.53;;;11.97;83.73
9462;BME280;4769;42.660;23.262;2023-04-22T05:17:31;93771.16;;;12.00;83.14
9462;BME280;4769;42.660;23.262;2023-04-22T05:19:57;93772.00;;;12.11;83.25
9462;BME280;4769;42.660;23.262;2023-04-22T05:22:25;93769.97;;;12.23;83.21
9462;BME280;4769;42.660;23.262;2023-04-22T05:24:53;93769.19;;;12.32;82.17
9462;BME280;4769;42.660;23.262;2023-04-22T05:27:19;93771.56;;;12.29;82.24
9462;BME280;4769;42.660;23.262;2023-04-22T05:29:45;93776.34;;;12.32;82.31
9462;BME280;4769;42.660;23.262;2023-04-22T05:32:11;93770.00;;;12.33;81.69
9462;BME280;4769;42.660;23.262;2023-04-22T05:34:36;93780.88;;;12.41;81.41
9462;BME280;4769;42.660;23.262;2023-04-22T05:37:02;93778.25;;;12.51;81.63
9462;BME280;4769;42.660;23.262;2023-04-22T05:39:31;93776.69;;;12.55;80.78
9462;BME280;4769;42.660;23.262;2023-04-22T05:41:56;93776.19;;;12.63;80.21
9462;BME280;4769;42.660;23.262;2023-04-22T05:44:22;93787.59;;;12.79;79.79
9462;BME280;4769;42.660;23.262;2023-04-22T05:46:48;93782.88;;;13.01;78.22
9462;BME280;4769;42.660;23.262;2023-04-22T05:49:13;93781.31;;;13.05;78.28
9462;BME280;4769;42.660;23.262;2023-04-22T05:51:39;93775.50;;;13.13;77.53
9462;BME280;4769;42.660;23.262;2023-04-22T05:54:08;93778.44;;;13.36;76.82
9462;BME280;4769;42.660;23.262;2023-04-22T05:56:36;93773.38;;;13.20;76.99
9462;BME280;4769;42.660;23.262;2023-04-22T05:59:02;93774.47;;;13.49;75.76
9462;BME280;4769;42.660;23.262;2023-04-22T06:01:28;93770.50;;;13.46;75.89
9462;BME280;4769;42.660;23.262;2023-04-22T06:03:53;93772.06;;;13.62;75.39
9462;BME280;4769;42.660;23.262;2023-04-22T06:06:19;93776.56;;;13.62;74.65
9462;BME280;4769;42.660;23.262;2023-04-22T06:08:45;93773.66;;;13.48;74.89
9462;BME280;4769;42.660;23.262;2023-04-22T06:11:11;93775.50;;;13.43;75.54
9462;BME280;4769;42.660;23.262;2023-04-22T06:13:39;93767.56;;;13.33;75.31
9462;BME280;4769;42.660;23.262;2023-04-22T06:16:05;93770.75;;;13.25;75.48
9462;BME280;4769;42.660;23.262;2023-04-22T06:18:31;93770.72;;;13.20;76.13
9462;BME280;4769;42.660;23.262;2023-04-22T06:20:56;93766.75;;;13.12;76.47
9462;BME280;4769;42.660;23.262;2023-04-22T06:23:22;93776.56;;;13.52;75.22
9462;BME280;4769;42.660;23.262;2023-04-22T06:25:48;93776.28;;;13.83;74.26
9462;BME280;4769;42.660;23.262;2023-04-22T06:28:13;93765.06;;;14.12;73.43
9462;BME280;4769;42.660;23.262;2023-04-22T06:30:42;93776.44;;;14.27;73.04
9462;BME280;4769;42.660;23.262;2023-04-22T06:33:07;93777.53;;;14.21;72.51
9462;BME280;4769;42.660;23.262;2023-04-22T06:35:36;93784.13;;;14.29;71.98
9462;BME280;4769;42.660;23.262;2023-04-22T06:38:02;93780.47;;;13.94;73.02
9462;BME280;4769;42.660;23.262;2023-04-22T06:40:28;93771.25;;;13.77;73.85
9462;BME280;4769;42.660;23.262;2023-04-22T06:42:53;93772.28;;;13.91;74.12
9462;BME280;4769;42.660;23.262;2023-04-22T06:45:19;93776.13;;;14.39;72.63
9462;BME280;4769;42.660;23.262;2023-04-22T06:47:47;93784.56;;;14.56;71.50
9462;BME280;4769;42.660;23.262;2023-04-22T06:50:13;93779.19;;;14.66;70.64
9462;BME280;4769;42.660;23.262;2023-04-22T06:52:39;93780.97;;;14.85;70.57
9462;BME280;4769;42.660;23.262;2023-04-22T06:55:05;93781.56;;;15.16;69.26
9462;BME280;4769;42.660;23.262;2023-04-22T06:57:31;93777.44;;;14.95;68.77
9462;BME280;4769;42.660;23.262;2023-04-22T06:59:56;93786.00;;;15.35;68.12
9462;BME280;4769;42.660;23.262;2023-04-22T07:02:22;93781.78;;;15.63;67.50
9462;BME280;4769;42.660;23.262;2023-04-22T07:04:50;93788.56;;;15.79;65.72
9462;BME280;4769;42.660;23.262;2023-04-22T07:07:16;93787.09;;;15.91;65.23
9462;BME280;4769;42.660;23.262;2023-04-22T07:09:42;93781.22;;;15.94;65.01
9462;BME280;4769;42.660;23.262;2023-04-22T07:12:08;93786.84;;;15.88;65.39
9462;BME280;4769;42.660;23.262;2023-04-22T07:14:34;93792.88;;;15.70;64.72
9462;BME280;4769;42.660;23.262;2023-04-22T07:16:59;93785.19;;;15.68;64.70
9462;BME280;4769;42.660;23.262;2023-04-22T07:19:25;93784.84;;;16.03;63.41
9462;BME280;4769;42.660;23.262;2023-04-22T07:21:53;93791.91;;;16.41;61.92
9462;BME280;4769;42.660;23.262;2023-04-22T07:24:19;93788.66;;;16.91;60.52
9462;BME280;4769;42.660;23.262;2023-04-22T07:26:45;93790.63;;;17.41;58.79
9462;BME280;4769;42.660;23.262;2023-04-22T07:29:10;93788.47;;;17.43;58.28
9462;BME280;4769;42.660;23.262;2023-04-22T07:31:36;93791.13;;;17.43;58.96
9462;BME280;4769;42.660;23.262;2023-04-22T07:34:02;93789.19;;;17.81;57.57
9462;BME280;4769;42.660;23.262;2023-04-22T07:36:27;93790.50;;;17.83;56.89
9462;BME280;4769;42.660;23.262;2023-04-22T07:38:56;93792.13;;;17.66;56.87
9462;BME280;4769;42.660;23.262;2023-04-22T07:41:22;93783.75;;;17.72;56.92
9462;BME280;4769;42.660;23.262;2023-04-22T07:43:47;93791.03;;;17.99;55.38
9462;BME280;4769;42.660;23.262;2023-04-22T07:46:13;93794.13;;;18.19;55.02
9462;BME280;4769;42.660;23.262;2023-04-22T07:48:39;93788.75;;;18.38;54.69
9462;BME280;4769;42.660;23.262;2023-04-22T07:51:05;93789.94;;;18.72;53.31
9462;BME280;4769;42.660;23.262;2023-04-22T07:53:31;93781.03;;;18.90;52.90
9462;BME280;4769;42.660;23.262;2023-04-22T07:55:59;93789.16;;;18.58;52.60
9462;BME280;4769;42.660;23.262;2023-04-22T07:58:25;93787.16;;;18.77;52.03
9462;BME280;4769;42.660;23.262;2023-04-22T08:00:51;93783.50;;;18.46;52.17
9462;BME280;4769;42.660;23.262;2023-04-22T08:03:16;93775.91;;;18.53;51.49
9462;BME280;4769;42.660;23.262;2023-04-22T08:05:42;93782.75;;;18.00;52.85
9462;BME280;4769;42.660;23.262;2023-04-22T08:08:08;93778.72;;;18.30;51.59
9462;BME280;4769;42.660;23.262;2023-04-22T08:10:34;93767.09;;;18.66;50.68
9462;BME280;4769;42.660;23.262;2023-04-22T08:13:03;93770.53;;;18.94;50.96
9462;BME280;4769;42.660;23.262;2023-04-22T08:15:29;93768.75;;;19.38;49.26
9462;BME280;4769;42.660;23.262;2023-04-22T08:17:54;93770.91;;;19.94;47.18
9462;BME280;4769;42.660;23.262;2023-04-22T08:20:20;93771.88;;;19.76;46.18
9462;BME280;4769;42.660;23.262;2023-04-22T08:22:48;93777.56;;;19.39;46.84
9462;BME280;4769;42.660;23.262;2023-04-22T08:25:14;93763.94;;;19.27;47.45
9462;BME280;4769;42.660;23.262;2023-04-22T08:27:40;93764.69;;;18.78;46.99
9462;BME280;4769;42.660;23.262;2023-04-22T08:30:09;93768.66;;;18.94;47.74
9462;BME280;4769;42.660;23.262;2023-04-22T08:32:36;93765.91;;;19.35;47.13
9462;BME280;4769;42.660;23.262;2023-04-22T08:35:02;93754.44;;;19.78;45.53
9462;BME280;4769;42.660;23.262;2023-04-22T08:37:28;93766.72;;;19.35;45.37
9462;BME280;4769;42.660;23.262;2023-04-22T08:39:54;93756.72;;;18.65;46.92
9462;BME280;4769;42.660;23.262;2023-04-22T08:42:23;93753.69;;;19.07;46.80
9462;BME280;4769;42.660;23.262;2023-04-22T08:44:50;93754.78;;;19.85;45.90
9462;BME280;4769;42.660;23.262;2023-04-22T08:47:20;93750.66;;;20.32;44.45
9462;BME280;4769;42.660;23.262;2023-04-22T08:49:46;93737.78;;;20.90;42.10
9462;BME280;4769;42.660;23.262;2023-04-22T08:52:12;93748.09;;;20.57;40.23
9462;BME280;4769;42.660;23.262;2023-04-22T08:54:38;93740.56;;;19.76;43.65
9462;BME280;4769;42.660;23.262;2023-04-22T08:57:04;93747.19;;;19.35;42.68
9462;BME280;4769;42.660;23.262;2023-04-22T08:59:30;93735.78;;;18.94;44.57
9462;BME280;4769;42.660;23.262;2023-04-22T09:01:56;93737.66;;;19.64;43.20
9462;BME280;4769;42.660;23.262;2023-04-22T09:04:25;93730.94;;;19.97;41.90
9462;BME280;4769;42.660;23.262;2023-04-22T09:06:51;93731.09;;;20.01;42.88
9462;BME280;4769;42.660;23.262;2023-04-22T09:09:18;93735.19;;;20.20;41.64
9462;BME280;4769;42.660;23.262;2023-04-22T09:11:44;93730.66;;;20.29;41.57
9462;BME280;4769;42.660;23.262;2023-04-22T09:14:10;93725.44;;;20.24;41.69
9462;BME280;4769;42.660;23.262;2023-04-22T09:16:39;93725.72;;;19.92;42.15
9462;BME280;4769;42.660;23.262;2023-04-22T09:19:10;93723.81;;;20.54;42.02
9462;BME280;4769;42.660;23.262;2023-04-22T09:21:39;93712.00;;;20.55;40.99
9462;BME280;4769;42.660;23.262;2023-04-22T09:24:06;93731.63;;;20.33;40.49
9462;BME280;4769;42.660;23.262;2023-04-22T09:26:32;93718.78;;;20.61;40.45
9462;BME280;4769;42.660;23.262;2023-04-22T09:28:58;93715.28;;;20.52;39.11
9462;BME280;4769;42.660;23.262;2023-04-22T09:31:25;93700.16;;;20.47;38.73
9462;BME280;4769;42.660;23.262;2023-04-22T09:33:53;93715.66;;;20.67;38.42
9462;BME280;4769;42.660;23.262;2023-04-22T09:36:21;93709.47;;;20.50;38.59
9462;BME280;4769;42.660;23.262;2023-04-22T09:39:00;93692.19;;;20.81;38.12
9462;BME280;4769;42.660;23.262;2023-04-22T09:41:27;93701.88;;;21.50;37.15
9462;BME280;4769;42.660;23.262;2023-04-22T09:43:54;93701.38;;;22.37;35.44
9462;BME280;4769;42.660;23.262;2023-04-22T09:46:26;93695.06;;;22.99;34.04
9462;BME280;4769;42.660;23.262;2023-04-22T09:48:54;93684.63;;;22.31;34.03
9462;BME280;4769;42.660;23.262;2023-04-22T09:51:19;93700.44;;;21.78;35.26
9462;BME280;4769;42.660;23.262;2023-04-22T09:53:58;93703.00;;;21.49;35.63
9462;BME280;4769;42.660;23.262;2023-04-22T09:56:44;93699.22;;;21.16;36.69
9462;BME280;4769;42.660;23.262;2023-04-22T09:59:10;93692.06;;;22.34;35.47
9462;BME280;4769;42.660;23.262;2023-04-22T10:01:39;93690.59;;;22.74;33.18
9462;BME280;4769;42.660;23.262;2023-04-22T10:04:07;93693.50;;;22.32;31.94
9462;BME280;4769;42.660;23.262;2023-04-22T10:06:34;93676.81;;;22.18;32.68
9462;BME280;4769;42.660;23.262;2023-04-22T10:09:02;93667.03;;;23.00;31.62
9462;BME280;4769;42.660;23.262;2023-04-22T10:11:29;93655.72;;;22.66;32.09
9462;BME280;4769;42.660;23.262;2023-04-22T10:13:54;93663.69;;;21.02;36.44
9462;BME280;4769;42.660;23.262;2023-04-22T10:16:20;93674.47;;;20.46;38.96
9462;BME280;4769;42.660;23.262;2023-04-22T10:18:49;93678.06;;;20.98;37.49
9462;BME280;4769;42.660;23.262;2023-04-22T10:21:16;93665.16;;;20.44;37.87
9462;BME280;4769;42.660;23.262;2023-04-22T10:23:45;93668.16;;;20.42;38.14
9462;BME280;4769;42.660;23.262;2023-04-22T10:26:46;93676.94;;;20.26;38.59
9462;BME280;4769;42.660;23.262;2023-04-22T10:29:14;93677.09;;;20.29;37.71
9462;BME280;4769;42.660;23.262;2023-04-22T10:31:40;93682.16;;;20.31;38.17
9462;BME280;4769;42.660;23.262;2023-04-22T10:34:10;93674.47;;;20.07;37.54
9462;BME280;4769;42.660;23.262;2023-04-22T10:36:51;93675.28;;;19.77;37.67
9462;BME280;4769;42.660;23.262;2023-04-22T10:39:17;93667.75;;;19.57;38.29
9462;BME280;4769;42.660;23.262;2023-04-22T10:41:56;93682.03;;;20.53;36.50
9462;BME280;4769;42.660;23.262;2023-04-22T10:44:27;93655.16;;;21.51;33.16
9462;BME280;4769;42.660;23.262;2023-04-22T10:47:01;93660.44;;;22.40;31.17
9462;BME280;4769;42.660;23.262;2023-04-22T10:49:29;93658.53;;;22.98;30.55
9462;BME280;4769;42.660;23.262;2023-04-22T10:51:56;93661.44;;;23.67;30.38
9462;BME280;4769;42.660;23.262;2023-04-22T10:57:20;93662.91;;;23.76;30.31
9462;BME280;4769;42.660;23.262;2023-04-22T10:59:47;93666.16;;;24.03;29.75
9462;BME280;4769;42.660;23.262;2023-04-22T11:02:14;93649.66;;;23.59;29.58
9462;BME280;4769;42.660;23.262;2023-04-22T11:04:40;93652.38;;;24.04;29.38
9462;BME280;4769;42.660;23.262;2023-04-22T11:07:13;93653.66;;;24.67;28.40
9462;BME280;4769;42.660;23.262;2023-04-22T11:09:40;93646.91;;;24.49;28.10
9462;BME280;4769;42.660;23.262;2023-04-22T11:15:04;93656.66;;;24.17;27.56
9462;BME280;4769;42.660;23.262;2023-04-22T11:17:30;93649.84;;;25.43;27.29
9462;BME280;4769;42.660;23.262;2023-04-22T11:19:56;93644.25;;;26.38;26.10
9462;BME280;4769;42.660;23.262;2023-04-22T11:22:22;93646.53;;;26.36;25.11
9462;BME280;4769;42.660;23.262;2023-04-22T11:24:53;93647.53;;;25.18;26.68
9462;BME280;4769;42.660;23.262;2023-04-22T11:27:18;93657.00;;;24.16;26.72
9462;BME280;4769;42.660;23.262;2023-04-22T11:29:58;93658.91;;;23.09;28.45
9462;BME280;4769;42.660;23.262;2023-04-22T11:32:27;93656.38;;;21.79;30.95
9462;BME280;4769;42.660;23.262;2023-04-22T11:34:53;93669.66;;;21.76;31.72
9462;BME280;4769;42.660;23.262;2023-04-22T11:37:19;93663.34;;;21.63;32.70
9462;BME280;4769;42.660;23.262;2023-04-22T11:39:45;93666.66;;;21.77;33.09
9462;BME280;4769;42.660;23.262;2023-04-22T11:42:11;93685.44;;;21.69;34.24
9462;BME280;4769;42.660;23.262;2023-04-22T11:44:37;93684.03;;;21.20;34.62
9462;BME280;4769;42.660;23.262;2023-04-22T11:47:03;93691.41;;;21.83;35.11
9462;BME280;4769;42.660;23.262;2023-04-22T11:49:32;93693.06;;;22.21;34.49
9462;BME280;4769;42.660;23.262;2023-04-22T11:51:58;93687.72;;;22.59;32.65
9462;BME280;4769;42.660;23.262;2023-04-22T11:54:31;93700.81;;;22.89;33.03
9462;BME280;4769;42.660;23.262;2023-04-22T11:56:56;93718.09;;;23.70;32.27
9462;BME280;4769;42.660;23.262;2023-04-22T11:59:23;93713.81;;;24.35;30.48
9462;BME280;4769;42.660;23.262;2023-04-22T12:01:51;93703.41;;;25.05;30.06
9462;BME280;4769;42.660;23.262;2023-04-22T12:04:20;93702.88;;;24.64;29.95
9462;BME280;4769;42.660;23.262;2023-04-22T12:06:48;93717.69;;;23.80;31.69
9462;BME280;4769;42.660;23.262;2023-04-22T12:09:15;93711.38;;;23.97;31.88
9462;BME280;4769;42.660;23.262;2023-04-22T12:11:43;93718.81;;;24.12;31.62
9462;BME280;4769;42.660;23.262;2023-04-22T12:14:10;93712.63;;;25.16;30.40
9462;BME280;4769;42.660;23.262;2023-04-22T12:16:39;93719.59;;;24.81;31.10
9462;BME280;4769;42.660;23.262;2023-04-22T12:19:05;93715.50;;;23.62;32.96
9462;BME280;4769;42.660;23.262;2023-04-22T12:21:31;93724.91;;;22.77;34.57
9462;BME280;4769;42.660;23.262;2023-04-22T12:24:00;93724.59;;;21.53;36.94
9462;BME280;4769;42.660;23.262;2023-04-22T12:26:26;93718.81;;;19.69;40.44
9462;BME280;4769;42.660;23.262;2023-04-22T12:28:52;93724.75;;;19.88;39.68
9462;BME280;4769;42.660;23.262;2023-04-22T12:31:18;93723.97;;;20.49;40.26
9462;BME280;4769;42.660;23.262;2023-04-22T12:33:45;93717.63;;;20.92;39.39
9462;BME280;4769;42.660;23.262;2023-04-22T12:36:11;93728.69;;;21.25;38.05
9462;BME280;4769;42.660;23.262;2023-04-22T12:38:37;93720.63;;;21.42;37.77
9462;BME280;4769;42.660;23.262;2023-04-22T12:41:06;93714.53;;;20.68;39.27
9462;BME280;4769;42.660;23.262;2023-04-22T12:43:32;93714.28;;;20.87;39.47
9462;BME280;4769;42.660;23.262;2023-04-22T12:45:58;93706.47;;;19.90;40.36
9462;BME280;4769;42.660;23.262;2023-04-22T12:48:24;93720.25;;;19.75;41.51
9462;BME280;4769;42.660;23.262;2023-04-22T12:50:53;93716.69;;;20.41;40.49
9462;BME280;4769;42.660;23.262;2023-04-22T12:53:19;93699.44;;;22.00;36.86
9462;BME280;4769;42.660;23.262;2023-04-22T12:55:45;93707.91;;;23.97;33.62
9462;BME280;4769;42.660;23.262;2023-04-22T12:58:15;93702.41;;;24.86;32.75
9462;BME280;4769;42.660;23.262;2023-04-22T13:00:41;93705.00;;;24.02;32.60
9462;BME280;4769;42.660;23.262;2023-04-22T13:03:06;93700.88;;;21.97;35.13
9462;BME280;4769;42.660;23.262;2023-04-22T13:05:32;93697.47;;;21.29;36.51
9462;BME280;4769;42.660;23.262;2023-04-22T13:07:58;93707.75;;;20.15;37.38
9462;BME280;4769;42.660;23.262;2023-04-22T13:10:24;93708.47;;;20.07;43.74
9462;BME280;4769;42.660;23.262;2023-04-22T13:12:50;93698.31;;;20.65;41.40
9462;BME280;4769;42.660;23.262;2023-04-22T13:15:18;93701.84;;;20.04;39.12